Young America, Minnesota
Current Conditions -  °F | °C
As of 3:14 PM on Saturday 22 Nov 2014 (Local Time) from KGYL Reporting Station
Haze Haze  
Wind Chill: 29°   Ceiling: 300
Heat Index: 36°   Visibility: 2.5mi
Dew Point: 35°   Wind: 9mph
Humidity: 99%   Direction: 150°SSE
Pressure: 29.63"   Gusts: NA
Location:  44.78°N, 93.92°W
Report Text: KGYL 222114Z AUTO 15008KT 2 1/2SM BR OVC003 02/02 A2963 RMK AO2 T00200018
Loading
Personal Weather Stations






























Interactive Weather Map New forecast layout! Learn more

10-Day Weather Forecast

Advertisements
Track Severe Weather on mobile